createdAt,value
2019-02-02T00:02:25.929Z,99353.47
2019-02-02T00:04:52.144Z,99357.47
2019-02-02T00:07:18.321Z,99351.21
2019-02-02T00:09:44.481Z,99348.02
2019-02-02T00:12:10.773Z,99346.99
2019-02-02T00:14:36.929Z,99346.86
2019-02-02T00:17:03.187Z,99350.91
2019-02-02T00:19:29.482Z,99346.11
2019-02-02T00:21:55.643Z,99344.03
2019-02-02T00:24:21.914Z,99348.77
2019-02-02T00:26:48.213Z,99348.80
2019-02-02T00:29:14.376Z,99355.30
2019-02-02T00:31:40.644Z,99354.02
2019-02-02T00:34:06.836Z,99355.09
2019-02-02T00:36:33.000Z,99345.37
2019-02-02T00:38:59.163Z,99347.27
2019-02-02T00:41:25.448Z,99359.30
2019-02-02T00:43:51.601Z,99346.42
2019-02-02T00:46:17.879Z,99343.39
2019-02-02T00:48:44.082Z,99346.08
2019-02-02T00:51:10.342Z,99350.45
2019-02-02T00:53:36.526Z,99351.03
2019-02-02T00:56:03.424Z,99351.45
2019-02-02T00:58:29.678Z,99348.62
2019-02-02T01:00:55.849Z,99346.98
2019-02-02T01:03:22.058Z,99332.90
2019-02-02T01:05:48.320Z,99333.67
2019-02-02T01:08:14.690Z,99330.53
2019-02-02T01:10:42.088Z,99328.47
2019-02-02T01:13:08.251Z,99322.52
2019-02-02T01:15:34.515Z,99328.30
2019-02-02T01:18:00.845Z,99324.06
2019-02-02T01:20:27.716Z,99309.72
2019-02-02T01:22:53.876Z,99299.67
2019-02-02T01:25:20.293Z,99293.75
2019-02-02T01:27:46.560Z,99294.22
2019-02-02T01:30:16.508Z,99293.56
2019-02-02T01:32:42.853Z,99293.64
2019-02-02T01:35:11.824Z,99293.83
2019-02-02T01:37:38.176Z,99282.23
2019-02-02T01:40:07.968Z,99288.59
2019-02-02T01:42:34.241Z,99289.97
2019-02-02T01:45:00.809Z,99280.12
2019-02-02T01:47:27.108Z,99277.87
2019-02-02T01:49:53.387Z,99277.66
2019-02-02T01:52:19.541Z,99276.66
2019-02-02T01:54:45.728Z,99278.86
2019-02-02T01:57:12.001Z,99271.97
2019-02-02T01:59:38.160Z,99275.81
2019-02-02T02:02:04.361Z,99278.10
2019-02-02T02:04:30.627Z,99275.11
2019-02-02T02:06:56.799Z,99271.92
2019-02-02T02:09:23.055Z,99266.70
2019-02-02T02:11:49.317Z,99259.86
2019-02-02T02:14:15.574Z,99258.97
2019-02-02T02:16:41.811Z,99262.37
2019-02-02T02:19:07.970Z,99263.25
2019-02-02T02:21:34.165Z,99256.16
2019-02-02T02:24:00.379Z,99260.55
2019-02-02T02:26:26.644Z,99267.08
2019-02-02T02:28:52.815Z,99266.12
2019-02-02T02:31:19.017Z,99266.91
2019-02-02T02:33:45.293Z,99264.11
2019-02-02T02:36:11.528Z,99262.60
2019-02-02T02:38:37.892Z,99267.72
2019-02-02T02:41:04.019Z,99269.12
2019-02-02T02:43:30.186Z,99265.59
2019-02-02T02:45:56.382Z,99267.86
2019-02-02T02:48:22.642Z,99268.67
2019-02-02T02:50:48.917Z,99269.12
2019-02-02T02:53:15.133Z,99270.22
2019-02-02T02:55:41.297Z,99278.29
2019-02-02T02:58:07.470Z,99273.64
2019-02-02T03:00:33.770Z,99268.70
2019-02-02T03:02:59.923Z,99271.33
2019-02-02T03:05:26.089Z,99269.09
2019-02-02T03:07:53.697Z,99267.08
2019-02-02T03:10:25.133Z,99272.78
2019-02-02T03:12:51.983Z,99270.66
2019-02-02T03:15:18.762Z,99272.70
2019-02-02T03:17:45.375Z,99266.44
2019-02-02T03:20:13.641Z,99263.63
2019-02-02T03:22:39.847Z,99264.44
2019-02-02T03:25:12.193Z,99272.27
2019-02-02T03:27:38.457Z,99269.84
2019-02-02T03:30:08.380Z,99278.38
2019-02-02T03:32:34.557Z,99280.50
2019-02-02T03:35:00.809Z,99279.58
2019-02-02T03:37:27.019Z,99288.95
2019-02-02T03:39:53.301Z,99286.69
2019-02-02T03:42:19.565Z,99278.85
2019-02-02T03:44:45.761Z,99282.09
2019-02-02T03:47:11.948Z,99276.25
2019-02-02T03:49:38.215Z,99275.22
2019-02-02T03:52:04.511Z,99281.74
2019-02-02T03:54:30.675Z,99285.30
2019-02-02T03:56:56.940Z,99280.98
2019-02-02T03:59:23.149Z,99274.05
2019-02-02T04:01:49.415Z,99276.76
2019-02-02T04:04:15.576Z,99275.24
2019-02-02T04:06:41.769Z,99282.54
2019-02-02T04:09:07.941Z,99279.08
2019-02-02T04:11:36.089Z,99270.67
2019-02-02T04:14:02.397Z,99268.33
2019-02-02T04:16:28.553Z,99268.05
2019-02-02T04:18:54.723Z,99257.00
2019-02-02T04:21:21.030Z,99265.00
2019-02-02T04:23:47.294Z,99256.16
2019-02-02T04:26:13.552Z,99257.77
2019-02-02T04:28:39.841Z,99259.88
2019-02-02T04:31:06.105Z,99254.80
2019-02-02T04:33:32.373Z,99249.16
2019-02-02T04:35:58.566Z,99254.67
2019-02-02T04:38:24.727Z,99252.70
2019-02-02T04:40:50.889Z,99255.72
2019-02-02T04:43:17.190Z,99247.56
2019-02-02T04:45:43.597Z,99256.80
2019-02-02T04:48:09.848Z,99251.62
2019-02-02T04:50:36.050Z,99247.06
2019-02-02T04:53:02.209Z,99243.56
2019-02-02T04:55:28.471Z,99242.51
2019-02-02T04:57:54.665Z,99246.48
2019-02-02T05:00:25.372Z,99251.80
2019-02-02T05:02:51.643Z,99253.25
2019-02-02T05:05:17.844Z,99248.88
2019-02-02T05:07:44.133Z,99252.91
2019-02-02T05:10:23.546Z,99245.34
2019-02-02T05:12:50.514Z,99253.03
2019-02-02T05:15:16.779Z,99257.87
2019-02-02T05:17:43.095Z,99257.13
2019-02-02T05:20:14.513Z,99255.00
2019-02-02T05:22:40.684Z,99247.18
2019-02-02T05:25:07.990Z,99244.20
2019-02-02T05:27:34.254Z,99249.87
2019-02-02T05:30:00.560Z,99252.49
2019-02-02T05:32:26.914Z,99262.05
2019-02-02T05:34:53.079Z,99268.47
2019-02-02T05:37:19.249Z,99270.75
2019-02-02T05:39:45.564Z,99264.56
2019-02-02T05:42:11.722Z,99262.73
2019-02-02T05:44:37.900Z,99272.55
2019-02-02T05:47:04.107Z,99272.61
2019-02-02T05:49:30.366Z,99271.36
2019-02-02T05:51:56.640Z,99271.94
2019-02-02T05:54:22.850Z,99270.37
2019-02-02T05:56:49.017Z,99271.97
2019-02-02T05:59:15.175Z,99276.32
2019-02-02T06:01:41.466Z,99268.63
2019-02-02T06:04:07.624Z,99273.77
2019-02-02T06:06:33.835Z,99277.95
2019-02-02T06:09:00.146Z,99277.35
2019-02-02T06:11:26.429Z,99278.14
2019-02-02T06:13:52.752Z,99286.33
2019-02-02T06:16:18.940Z,99290.41
2019-02-02T06:18:45.203Z,99294.31
2019-02-02T06:21:11.371Z,99291.27
2019-02-02T06:23:37.556Z,99284.60
2019-02-02T06:26:03.822Z,99278.80
2019-02-02T06:28:29.994Z,99274.56
2019-02-02T06:30:56.208Z,99260.93
2019-02-02T06:33:22.365Z,99256.16
2019-02-02T06:35:48.523Z,99257.75
2019-02-02T06:38:14.721Z,99266.69
2019-02-02T06:40:40.895Z,99274.66
2019-02-02T06:43:07.084Z,99273.45
2019-02-02T06:45:35.181Z,99272.07
2019-02-02T06:48:01.456Z,99272.30
2019-02-02T06:50:27.735Z,99266.30
2019-02-02T06:52:54.050Z,99264.78
2019-02-02T06:55:20.331Z,99276.77
2019-02-02T06:57:46.613Z,99278.34
2019-02-02T07:00:16.501Z,99277.23
2019-02-02T07:02:42.710Z,99273.81
2019-02-02T07:05:09.004Z,99270.08
2019-02-02T07:07:35.321Z,99277.50
2019-02-02T07:10:02.190Z,99276.51
2019-02-02T07:12:28.358Z,99281.66
2019-02-02T07:14:54.763Z,99282.03
2019-02-02T07:17:21.044Z,99285.28
2019-02-02T07:19:47.332Z,99280.38
2019-02-02T07:22:13.523Z,99279.95
2019-02-02T07:24:39.689Z,99271.07
2019-02-02T07:27:05.858Z,99272.61
2019-02-02T07:29:32.047Z,99262.25
2019-02-02T07:31:58.205Z,99256.89
2019-02-02T07:34:24.386Z,99254.77
2019-02-02T07:36:50.688Z,99249.65
2019-02-02T07:39:16.952Z,99253.52
2019-02-02T07:41:43.113Z,99250.05
2019-02-02T07:44:09.311Z,99244.98
2019-02-02T07:46:35.874Z,99241.11
2019-02-02T07:49:02.133Z,99242.51
2019-02-02T07:51:28.333Z,99246.58
2019-02-02T07:53:54.587Z,99245.09
2019-02-02T07:56:20.739Z,99242.84
2019-02-02T07:58:47.042Z,99253.20
2019-02-02T08:01:13.194Z,99258.19
2019-02-02T08:03:39.360Z,99260.05
2019-02-02T08:06:05.571Z,99252.94
2019-02-02T08:08:31.838Z,99252.25
2019-02-02T08:10:58.023Z,99251.39
2019-02-02T08:13:24.204Z,99249.15
2019-02-02T08:15:50.412Z,99251.77
2019-02-02T08:18:16.563Z,99254.37
2019-02-02T08:20:42.790Z,99248.19
2019-02-02T08:23:08.955Z,99249.81
2019-02-02T08:25:35.113Z,99248.52
2019-02-02T08:28:01.298Z,99248.35
2019-02-02T08:30:29.658Z,99240.63
2019-02-02T08:32:55.930Z,99250.05
2019-02-02T08:35:22.132Z,99251.27
2019-02-02T08:37:48.300Z,99255.08
2019-02-02T08:40:16.668Z,99255.03
2019-02-02T08:42:42.865Z,99263.13
2019-02-02T08:45:10.519Z,99258.17
2019-02-02T08:47:36.684Z,99256.56
2019-02-02T08:50:06.581Z,99264.75
2019-02-02T08:52:32.748Z,99272.03
2019-02-02T08:54:58.925Z,99269.42
2019-02-02T08:57:25.209Z,99284.36
2019-02-02T08:59:51.625Z,99281.53
2019-02-02T09:02:17.786Z,99283.69
2019-02-02T09:04:44.115Z,99285.92
2019-02-02T09:07:10.343Z,99296.53
2019-02-02T09:09:36.601Z,99292.45
2019-02-02T09:12:03.305Z,99287.28
2019-02-02T09:14:29.485Z,99281.74
2019-02-02T09:16:55.677Z,99286.88
2019-02-02T09:19:21.879Z,99283.28
2019-02-02T09:21:48.036Z,99281.41
2019-02-02T09:24:14.189Z,99286.37
2019-02-02T09:26:40.489Z,99283.39
2019-02-02T09:29:06.646Z,99278.66
2019-02-02T09:31:32.802Z,99284.41
2019-02-02T09:33:58.988Z,99281.72
2019-02-02T09:36:25.144Z,99287.53
2019-02-02T09:38:51.303Z,99282.31
2019-02-02T09:41:17.508Z,99285.48
2019-02-02T09:43:43.779Z,99277.39
2019-02-02T09:46:09.940Z,99277.01
2019-02-02T09:48:36.129Z,99261.61
2019-02-02T09:51:02.407Z,99263.57
2019-02-02T09:53:28.567Z,99268.19
2019-02-02T09:55:54.748Z,99267.83
2019-02-02T09:58:21.244Z,99255.64
2019-02-02T10:00:47.511Z,99257.38
2019-02-02T10:03:13.805Z,99245.80
2019-02-02T10:05:40.084Z,99247.88
2019-02-02T10:08:06.236Z,99239.96
2019-02-02T10:10:33.645Z,99238.31
2019-02-02T10:12:59.794Z,99231.92
2019-02-02T10:15:25.947Z,99218.11
2019-02-02T10:17:53.177Z,99217.55
2019-02-02T10:20:43.672Z,99212.79
2019-02-02T10:23:09.881Z,99207.87
2019-02-02T10:25:36.042Z,99209.72
2019-02-02T10:28:02.612Z,99215.59
2019-02-02T10:30:34.615Z,99218.88
2019-02-02T10:33:00.876Z,99221.38
2019-02-02T10:35:27.248Z,99210.38
2019-02-02T10:37:53.744Z,99210.38
2019-02-02T10:40:19.898Z,99187.02
2019-02-02T10:42:46.057Z,99180.38
2019-02-02T10:45:14.161Z,99176.73
2019-02-02T10:47:42.869Z,99169.72
2019-02-02T10:50:14.427Z,99173.92
2019-02-02T10:52:40.618Z,99185.90
2019-02-02T10:55:09.683Z,99175.22
2019-02-02T10:57:35.833Z,99168.50
2019-02-02T11:00:04.247Z,99162.70
2019-02-02T11:02:30.408Z,99156.06
2019-02-02T11:04:56.729Z,99152.23
2019-02-02T11:07:23.249Z,99145.27
2019-02-02T11:09:49.381Z,99147.55
2019-02-02T11:12:15.535Z,99143.38
2019-02-02T11:14:41.845Z,99132.80
2019-02-02T11:17:08.071Z,99122.59
2019-02-02T11:19:34.379Z,99124.00
2019-02-02T11:22:00.573Z,99120.30
2019-02-02T11:24:26.989Z,99120.09
2019-02-02T11:26:53.435Z,99126.39
2019-02-02T11:29:19.809Z,99119.70
2019-02-02T11:31:45.988Z,99118.84
2019-02-02T11:34:12.265Z,99121.47
2019-02-02T11:36:38.562Z,99115.18
2019-02-02T11:39:05.424Z,99122.44
2019-02-02T11:41:31.587Z,99122.47
2019-02-02T11:43:57.790Z,99123.23
2019-02-02T11:46:23.945Z,99116.86
2019-02-02T11:48:50.100Z,99108.89
2019-02-02T11:51:16.397Z,99108.03
2019-02-02T11:53:42.655Z,99102.53
2019-02-02T11:56:08.922Z,99089.13
2019-02-02T11:58:35.113Z,99086.09
2019-02-02T12:01:01.373Z,99076.67
2019-02-02T12:03:27.692Z,99079.20
2019-02-02T12:05:53.889Z,99076.82
2019-02-02T12:08:20.100Z,99085.91
2019-02-02T12:10:46.299Z,99081.05
2019-02-02T12:13:12.496Z,99080.50
2019-02-02T12:15:38.754Z,99084.00
2019-02-02T12:18:04.925Z,99083.75
2019-02-02T12:20:33.120Z,99080.27
2019-02-02T12:22:59.222Z,99082.50
2019-02-02T12:25:25.375Z,99082.42
2019-02-02T12:27:51.588Z,99073.06
2019-02-02T12:30:20.347Z,99076.05
2019-02-02T12:32:46.496Z,99077.64
2019-02-02T12:35:21.069Z,99082.06
2019-02-02T12:37:47.230Z,99082.72
2019-02-02T12:40:15.984Z,99082.58
2019-02-02T12:42:42.177Z,99079.36
2019-02-02T12:45:11.650Z,99089.57
2019-02-02T12:47:37.810Z,99095.08
2019-02-02T12:50:07.500Z,99102.13
2019-02-02T12:52:33.663Z,99095.95
2019-02-02T12:54:59.818Z,99103.00
2019-02-02T12:57:26.157Z,99109.03
2019-02-02T12:59:52.322Z,99110.16
2019-02-02T13:02:18.478Z,99107.98
2019-02-02T13:04:44.664Z,99113.86
2019-02-02T13:07:10.831Z,99102.69
2019-02-02T13:09:36.980Z,99107.52
2019-02-02T13:12:03.276Z,99105.05
2019-02-02T13:14:29.539Z,99101.53
2019-02-02T13:16:55.687Z,99101.17
2019-02-02T13:19:21.988Z,99112.91
2019-02-02T13:21:48.164Z,99112.35
2019-02-02T13:24:14.325Z,99116.80
2019-02-02T13:26:40.509Z,99130.59
2019-02-02T13:29:06.766Z,99126.46
2019-02-02T13:31:32.937Z,99126.43
2019-02-02T13:33:59.126Z,99128.64
2019-02-02T13:36:25.296Z,99130.86
2019-02-02T13:38:51.452Z,99133.05
2019-02-02T13:41:17.645Z,99133.31
2019-02-02T13:43:43.806Z,99134.25
2019-02-02T13:46:09.967Z,99137.92
2019-02-02T13:48:36.374Z,99138.20
2019-02-02T13:51:05.840Z,99142.02
2019-02-02T13:53:30.893Z,99137.93
2019-02-02T13:55:57.097Z,99147.00
2019-02-02T13:58:23.247Z,99141.14
2019-02-02T14:00:49.408Z,99142.98
2019-02-02T14:03:15.613Z,99140.11
2019-02-02T14:05:41.767Z,99138.42
2019-02-02T14:08:07.932Z,99138.16
2019-02-02T14:10:34.231Z,99128.51
2019-02-02T14:13:00.484Z,99131.99
2019-02-02T14:15:26.747Z,99128.84
2019-02-02T14:17:53.064Z,99127.50
2019-02-02T14:20:19.317Z,99126.88
2019-02-02T14:22:45.630Z,99133.38
2019-02-02T14:25:13.733Z,99129.04
2019-02-02T14:27:39.894Z,99119.55
2019-02-02T14:30:09.747Z,99134.33
2019-02-02T14:32:35.941Z,99135.80
2019-02-02T14:35:02.997Z,99128.42
2019-02-02T14:37:29.155Z,99130.70
2019-02-02T14:39:55.354Z,99143.21
2019-02-02T14:42:26.288Z,99138.62
2019-02-02T14:44:52.442Z,99135.16
2019-02-02T14:47:20.685Z,99139.56
2019-02-02T14:49:46.848Z,99130.04
2019-02-02T14:52:13.025Z,99127.86
2019-02-02T14:54:39.237Z,99128.25
2019-02-02T14:57:05.409Z,99127.39
2019-02-02T14:59:31.582Z,99136.12
2019-02-02T15:01:57.769Z,99131.42
2019-02-02T15:04:23.928Z,99136.86
2019-02-02T15:06:53.251Z,99149.03
2019-02-02T15:09:19.435Z,99148.84
2019-02-02T15:11:45.590Z,99151.56
2019-02-02T15:14:11.744Z,99166.81
2019-02-02T15:16:37.936Z,99169.22
2019-02-02T15:19:04.189Z,99168.84
2019-02-02T15:21:33.410Z,99180.16
2019-02-02T15:23:59.664Z,99181.48
2019-02-02T15:26:25.824Z,99179.77
2019-02-02T15:28:54.907Z,99187.97
2019-02-02T15:31:21.111Z,99179.67
2019-02-02T15:33:49.849Z,99185.75
2019-02-02T15:36:16.187Z,99190.30
2019-02-02T15:38:42.391Z,99193.58
2019-02-02T15:41:08.667Z,99198.70
2019-02-02T15:43:34.826Z,99197.73
2019-02-02T15:46:01.142Z,99200.79
2019-02-02T15:48:27.433Z,99202.48
2019-02-02T15:50:53.591Z,99200.19
2019-02-02T15:53:19.811Z,99201.35
2019-02-02T15:55:45.965Z,99199.83
2019-02-02T15:58:12.129Z,99193.72
2019-02-02T16:00:38.326Z,99201.17
2019-02-02T16:03:04.584Z,99198.53
2019-02-02T16:05:31.646Z,99195.39
2019-02-02T16:07:59.955Z,99194.19
2019-02-02T16:10:28.210Z,99193.15
2019-02-02T16:12:54.366Z,99189.74
2019-02-02T16:15:20.581Z,99189.96
2019-02-02T16:17:46.867Z,99183.81
2019-02-02T16:20:25.413Z,99185.30
2019-02-02T16:22:51.574Z,99176.67
2019-02-02T16:25:17.824Z,99179.84
2019-02-02T16:27:44.999Z,99173.90
2019-02-02T16:30:14.560Z,99185.34
2019-02-02T16:32:40.750Z,99180.94
2019-02-02T16:35:09.485Z,99175.63
2019-02-02T16:37:36.380Z,99183.81
2019-02-02T16:40:06.492Z,99177.30
2019-02-02T16:42:35.826Z,99183.88
2019-02-02T16:45:00.999Z,99186.52
2019-02-02T16:47:27.289Z,99186.88
2019-02-02T16:49:53.836Z,99186.31
2019-02-02T16:52:20.107Z,99181.33
2019-02-02T16:54:46.371Z,99181.44
2019-02-02T16:57:12.703Z,99179.06
2019-02-02T16:59:38.871Z,99180.80
2019-02-02T17:02:05.048Z,99188.89
2019-02-02T17:04:31.267Z,99184.89
2019-02-02T17:06:57.424Z,99190.47
2019-02-02T17:09:23.588Z,99195.06
2019-02-02T17:11:49.873Z,99193.73
2019-02-02T17:14:17.943Z,99192.98
2019-02-02T17:16:44.196Z,99196.94
2019-02-02T17:19:10.498Z,99184.40
2019-02-02T17:21:36.644Z,99178.25
2019-02-02T17:24:03.130Z,99183.14
2019-02-02T17:26:29.480Z,99180.38
2019-02-02T17:28:55.755Z,99184.55
2019-02-02T17:31:21.915Z,99179.02
2019-02-02T17:33:48.102Z,99171.98
2019-02-02T17:36:14.400Z,99171.27
2019-02-02T17:38:40.573Z,99167.30
2019-02-02T17:41:06.873Z,99163.61
2019-02-02T17:43:33.024Z,99174.45
2019-02-02T17:45:59.191Z,99179.86
2019-02-02T17:48:25.376Z,99178.41
2019-02-02T17:50:51.655Z,99173.06
2019-02-02T17:53:17.928Z,99177.31
2019-02-02T17:55:44.150Z,99172.93
2019-02-02T17:58:13.241Z,99165.34
2019-02-02T18:00:41.892Z,99171.06
2019-02-02T18:03:08.124Z,99162.08
2019-02-02T18:05:34.389Z,99164.38
2019-02-02T18:08:00.644Z,99156.11
2019-02-02T18:10:26.840Z,99150.80
2019-02-02T18:12:53.003Z,99162.53
2019-02-02T18:15:19.173Z,99154.63
2019-02-02T18:17:45.422Z,99162.56
2019-02-02T18:20:14.090Z,99152.80
2019-02-02T18:22:40.280Z,99163.80
2019-02-02T18:25:11.778Z,99160.49
2019-02-02T18:27:38.090Z,99165.34
2019-02-02T18:30:13.830Z,99167.23
2019-02-02T18:32:39.991Z,99177.66
2019-02-02T18:35:08.961Z,99179.80
2019-02-02T18:37:35.166Z,99183.45
2019-02-02T18:40:01.323Z,99186.66
2019-02-02T18:42:27.482Z,99186.09
2019-02-02T18:44:53.768Z,99173.53
2019-02-02T18:47:21.035Z,99178.83
2019-02-02T18:49:47.191Z,99177.00
2019-02-02T18:52:13.404Z,99187.45
2019-02-02T18:54:39.563Z,99192.81
2019-02-02T18:57:05.737Z,99179.80
2019-02-02T18:59:31.941Z,99183.10
2019-02-02T19:01:58.103Z,99180.05
2019-02-02T19:04:24.667Z,99165.74
2019-02-02T19:06:50.866Z,99169.88
2019-02-02T19:09:17.130Z,99167.05
2019-02-02T19:11:43.296Z,99170.56
2019-02-02T19:14:09.593Z,99164.57
2019-02-02T19:16:35.781Z,99164.73
2019-02-02T19:19:02.042Z,99162.78
2019-02-02T19:21:28.251Z,99160.31
2019-02-02T19:23:54.514Z,99167.56
2019-02-02T19:26:20.776Z,99161.08
2019-02-02T19:28:47.207Z,99164.09
2019-02-02T19:31:13.490Z,99168.02
2019-02-02T19:33:39.779Z,99175.41
2019-02-02T19:36:05.972Z,99173.71
2019-02-02T19:38:32.137Z,99179.10
2019-02-02T19:40:58.392Z,99171.72
2019-02-02T19:43:24.578Z,99175.41
2019-02-02T19:45:53.537Z,99184.73
2019-02-02T19:48:18.802Z,99186.34
2019-02-02T19:50:45.584Z,99189.44
2019-02-02T19:53:11.933Z,99183.59
2019-02-02T19:55:38.129Z,99188.20
2019-02-02T19:58:04.430Z,99185.39
2019-02-02T20:00:32.607Z,99185.22
2019-02-02T20:02:59.257Z,99191.80
2019-02-02T20:05:28.788Z,99191.66
2019-02-02T20:07:53.708Z,99186.86
2019-02-02T20:10:19.869Z,99188.84
2019-02-02T20:12:46.308Z,99180.95
2019-02-02T20:15:15.097Z,99178.86
2019-02-02T20:17:41.341Z,99187.97
2019-02-02T20:20:11.356Z,99180.91
2019-02-02T20:22:37.524Z,99191.90
2019-02-02T20:25:07.402Z,99195.14
2019-02-02T20:27:33.607Z,99190.83
2019-02-02T20:29:59.957Z,99186.72
2019-02-02T20:32:26.221Z,99189.30
2019-02-02T20:34:52.409Z,99195.38
2019-02-02T20:37:18.567Z,99186.70
2019-02-02T20:39:44.839Z,99191.02
2019-02-02T20:42:11.044Z,99194.50
2019-02-02T20:44:37.308Z,99194.64
2019-02-02T20:47:11.512Z,99198.23
2019-02-02T20:49:37.708Z,99203.02
2019-02-02T20:54:54.830Z,99189.05
2019-02-02T20:57:21.127Z,99196.02
2019-02-02T21:03:25.417Z,99185.13
2019-02-02T21:05:52.781Z,99193.47
2019-02-02T21:08:19.080Z,99192.68
2019-02-02T21:10:45.323Z,99186.41
2019-02-02T21:13:12.018Z,99189.79
2019-02-02T21:15:38.184Z,99187.38
2019-02-02T21:18:04.523Z,99184.95
2019-02-02T21:20:31.166Z,99188.14
2019-02-02T21:22:57.430Z,99187.55
2019-02-02T21:25:23.854Z,99191.18
2019-02-02T21:31:36.592Z,99190.69
2019-02-02T21:34:03.153Z,99190.78
2019-02-02T21:36:29.551Z,99196.33
2019-02-02T21:38:55.745Z,99187.30
2019-02-02T21:41:22.017Z,99183.34
2019-02-02T21:43:48.301Z,99198.55
2019-02-02T21:46:14.512Z,99192.29
2019-02-02T21:48:40.786Z,99197.97
2019-02-02T21:51:06.960Z,99197.58
2019-02-02T22:01:32.408Z,99190.72
2019-02-02T22:03:58.577Z,99192.00
2019-02-02T22:06:24.735Z,99198.45
2019-02-02T22:08:50.929Z,99198.38
2019-02-02T22:11:17.195Z,99195.14
2019-02-02T22:13:43.468Z,99200.72
2019-02-02T22:16:09.671Z,99195.67
2019-02-02T22:18:36.148Z,99193.02
2019-02-02T22:21:02.411Z,99195.77
2019-02-02T22:23:28.718Z,99191.23
2019-02-02T22:25:54.882Z,99186.66
2019-02-02T22:28:21.044Z,99189.92
2019-02-02T22:30:47.240Z,99191.91
2019-02-02T22:33:13.426Z,99187.80
2019-02-02T22:35:39.910Z,99181.59
2019-02-02T22:38:06.115Z,99180.84
2019-02-02T22:40:32.271Z,99179.83
2019-02-02T22:42:58.467Z,99194.17
2019-02-02T22:45:24.646Z,99191.23
2019-02-02T22:47:51.098Z,99192.06
2019-02-02T22:50:19.474Z,99185.56
2019-02-02T22:52:46.180Z,99186.28
2019-02-02T22:55:14.335Z,99186.70
2019-02-02T22:57:40.614Z,99193.37
2019-02-02T23:00:24.505Z,99186.90
2019-02-02T23:02:52.069Z,99185.64
2019-02-02T23:05:28.065Z,99187.77
2019-02-02T23:07:57.855Z,99196.72
2019-02-02T23:10:33.813Z,99194.57
2019-02-02T23:13:24.919Z,99195.98
2019-02-02T23:15:54.950Z,99194.86
2019-02-02T23:18:21.208Z,99201.67
2019-02-02T23:20:47.385Z,99203.79
2019-02-02T23:23:13.594Z,99204.31
2019-02-02T23:25:40.167Z,99202.75
2019-02-02T23:28:06.327Z,99208.89
2019-02-02T23:30:32.532Z,99209.51
2019-02-02T23:32:58.804Z,99209.66
2019-02-02T23:35:25.134Z,99206.50
2019-02-02T23:37:51.339Z,99205.69
2019-02-02T23:40:17.513Z,99204.39
2019-02-02T23:42:44.280Z,99203.95
2019-02-02T23:45:10.595Z,99204.62
2019-02-02T23:47:36.968Z,99198.76
2019-02-02T23:50:08.470Z,99191.75
2019-02-02T23:52:34.670Z,99195.89
2019-02-02T23:55:00.838Z,99190.59
2019-02-02T23:57:27.003Z,99189.47
2019-02-02T23:59:53.412Z,99180.14
